createdAt,value
2023-04-26T00:05:12.668Z,14.09912109375
2023-04-26T00:15:13.339Z,13.7939453125
2023-04-26T00:25:12.300Z,13.5986328125
2023-04-26T00:35:12.274Z,13.5986328125
2023-04-26T00:45:12.204Z,13.6962890625
2023-04-26T00:55:12.078Z,14.00146484375
2023-04-26T01:05:12.046Z,14.404296875
2023-04-26T01:15:11.922Z,14.29443359375
2023-04-26T01:25:11.858Z,15.10009765625
2023-04-26T01:35:11.886Z,17.7001953125
2023-04-26T01:45:11.710Z,17.7001953125
2023-04-26T01:55:11.624Z,16.29638671875
2023-04-26T02:05:11.912Z,16.19873046875
2023-04-26T02:15:11.527Z,15.10009765625
2023-04-26T02:25:11.447Z,14.697265625
2023-04-26T02:35:11.374Z,14.697265625
2023-04-26T02:45:11.347Z,15.4052734375
2023-04-26T02:55:11.196Z,14.90478515625
2023-04-26T03:05:11.135Z,14.794921875
2023-04-26T03:15:11.066Z,14.794921875
2023-04-26T03:25:11.084Z,14.794921875
2023-04-26T03:35:10.921Z,14.404296875
2023-04-26T03:45:10.876Z,14.19677734375
2023-04-26T03:55:10.853Z,13.90380859375
2023-04-26T04:05:10.905Z,13.7939453125
2023-04-26T04:15:10.711Z,13.6962890625
2023-04-26T04:25:10.565Z,13.4033203125
2023-04-26T04:35:10.479Z,13.09814453125
2023-04-26T04:45:10.593Z,13.00048828125
2023-04-26T04:55:10.435Z,13.00048828125
2023-04-26T05:05:10.494Z,12.6953125
2023-04-26T05:15:10.272Z,12.5
2023-04-26T05:25:10.142Z,12.200927734375
2023-04-26T05:35:10.151Z,12.09716796875
2023-04-26T05:45:10.273Z,11.90185546875
2023-04-26T05:55:10.519Z,11.700439453125
2023-04-26T06:05:10.142Z,11.4990234375
2023-04-26T06:15:09.907Z,11.4013671875
2023-04-26T06:25:11.630Z,11.4013671875
2023-04-26T06:35:09.721Z,10.99853515625
2023-04-26T06:45:09.660Z,10.99853515625
2023-04-26T06:55:09.585Z,10.699462890625
2023-04-26T07:05:09.599Z,10.400390625
2023-04-26T07:15:09.397Z,10.302734375
2023-04-26T07:25:09.325Z,10.101318359375
2023-04-26T07:35:09.266Z,9.89990234375
2023-04-26T07:45:09.214Z,9.89990234375
2023-04-26T07:55:09.286Z,9.698486328125
2023-04-26T08:05:09.151Z,9.698486328125
2023-04-26T08:15:09.144Z,9.80224609375
2023-04-26T08:25:09.254Z,9.600830078125
2023-04-26T08:35:08.988Z,9.600830078125
2023-04-26T08:45:08.873Z,9.3994140625
2023-04-26T08:55:08.729Z,9.4970703125
2023-04-26T09:05:09.030Z,9.600830078125
2023-04-26T09:15:08.640Z,9.600830078125
2023-04-26T09:25:08.579Z,9.600830078125
2023-04-26T09:35:08.448Z,9.4970703125
2023-04-26T09:45:08.449Z,9.3017578125
2023-04-26T09:55:09.184Z,9.197998046875
2023-04-26T10:05:08.291Z,9.100341796875
2023-04-26T10:15:08.344Z,9.100341796875
2023-04-26T10:25:08.115Z,9.197998046875
2023-04-26T10:35:08.041Z,9.3994140625
2023-04-26T10:45:07.936Z,9.600830078125
2023-04-26T10:55:08.141Z,9.698486328125
2023-04-26T11:05:08.115Z,9.80224609375
2023-04-26T11:15:08.771Z,9.89990234375
2023-04-26T11:25:07.804Z,9.89990234375
2023-04-26T11:35:07.690Z,9.89990234375
2023-04-26T11:45:07.574Z,9.99755859375
2023-04-26T11:55:07.543Z,10.101318359375
2023-04-26T12:05:07.500Z,9.99755859375
2023-04-26T12:15:07.335Z,10.101318359375
2023-04-26T12:25:07.338Z,10.198974609375
2023-04-26T12:35:07.265Z,10.101318359375
2023-04-26T12:45:07.693Z,10.198974609375
2023-04-26T12:55:07.113Z,10.198974609375
2023-04-26T13:05:07.093Z,10.198974609375
2023-04-26T13:15:07.041Z,10.101318359375
2023-04-26T13:25:06.899Z,10.198974609375
2023-04-26T13:35:06.824Z,10.198974609375
2023-04-26T13:45:06.777Z,10.101318359375
2023-04-26T13:55:06.734Z,10.101318359375
2023-04-26T14:05:06.904Z,9.99755859375
2023-04-26T14:15:06.619Z,9.89990234375
2023-04-26T14:25:06.607Z,9.80224609375
2023-04-26T14:35:07.668Z,9.4970703125
2023-04-26T14:45:06.414Z,9.3017578125
2023-04-26T14:55:06.251Z,9.100341796875
2023-04-26T15:05:06.337Z,8.89892578125
2023-04-26T15:15:06.302Z,8.80126953125
2023-04-26T15:25:06.150Z,8.89892578125
2023-04-26T15:35:05.969Z,8.697509765625
2023-04-26T15:45:05.921Z,8.599853515625
2023-04-26T15:55:05.934Z,8.502197265625
2023-04-26T16:05:05.887Z,8.3984375
2023-04-26T16:15:05.809Z,8.3984375
2023-04-26T16:25:05.635Z,8.502197265625
2023-04-26T16:35:05.666Z,8.502197265625
2023-04-26T16:45:05.506Z,8.502197265625
2023-04-26T16:55:06.965Z,8.599853515625
2023-04-26T17:05:07.373Z,8.599853515625
2023-04-26T17:15:05.390Z,8.3984375
2023-04-26T17:25:05.221Z,8.30078125
2023-04-26T17:35:05.165Z,8.30078125
2023-04-26T17:45:05.271Z,8.30078125
2023-04-26T17:55:05.023Z,8.099365234375
2023-04-26T18:05:05.048Z,8.099365234375
2023-04-26T18:15:04.888Z,8.001708984375
2023-04-26T18:25:04.873Z,8.001708984375
2023-04-26T18:35:04.761Z,8.099365234375
2023-04-26T18:45:04.670Z,8.001708984375
2023-04-26T18:55:04.592Z,7.89794921875
2023-04-26T19:05:04.908Z,7.80029296875
2023-04-26T19:15:04.576Z,7.80029296875
2023-04-26T19:25:04.418Z,7.80029296875
2023-04-26T19:35:05.267Z,7.89794921875
2023-04-26T19:45:04.273Z,7.89794921875
2023-04-26T19:55:04.309Z,7.89794921875
2023-04-26T20:05:04.209Z,7.89794921875
2023-04-26T20:15:04.106Z,8.001708984375
2023-04-26T20:25:04.083Z,8.001708984375
2023-04-26T20:35:03.949Z,8.099365234375
2023-04-26T20:45:05.685Z,8.197021484375
2023-04-26T20:55:03.910Z,8.502197265625
2023-04-26T21:05:03.941Z,8.599853515625
2023-04-26T21:15:03.851Z,8.697509765625
2023-04-26T21:25:03.654Z,8.80126953125
2023-04-26T21:35:03.555Z,8.89892578125
2023-04-26T21:45:03.557Z,9.100341796875
2023-04-26T21:55:03.382Z,9.4970703125
2023-04-26T22:05:03.326Z,10.302734375
2023-04-26T22:15:03.344Z,11.102294921875
2023-04-26T22:25:03.296Z,11.90185546875
2023-04-26T22:35:03.133Z,12.80517578125
2023-04-26T22:45:03.118Z,13.4033203125
2023-04-26T22:55:03.153Z,14.00146484375
2023-04-26T23:05:03.006Z,14.501953125
2023-04-26T23:15:02.862Z,15.19775390625
2023-04-26T23:25:02.839Z,15.7958984375
2023-04-26T23:35:02.760Z,16.10107421875
2023-04-26T23:45:02.673Z,16.50390625
2023-04-26T23:55:02.550Z,16.50390625
